sensor_id;sensor_type;location;lat;lon;timestamp;temperature;humidity
2767;DHT22;1391;46.74287300;11.63683300;2023-05-07T00:00:22;13.10;96.70
2767;DHT22;1391;46.74287300;11.63683300;2023-05-07T00:02:50;12.60;96.60
2767;DHT22;1391;46.74287300;11.63683300;2023-05-07T00:05:18;12.40;96.80
2767;DHT22;1391;46.74287300;11.63683300;2023-05-07T00:07:46;12.60;97.10
2767;DHT22;1391;46.74287300;11.63683300;2023-05-07T00:10:14;12.40;98.90
2767;DHT22;1391;46.74287300;11.63683300;2023-05-07T00:12:41;12.30;99.90
2767;DHT22;1391;46.74287300;11.63683300;2023-05-07T00:15:09;12.30;99.90
2767;DHT22;1391;46.74287300;11.63683300;2023-05-07T00:17:36;12.70;99.90
2767;DHT22;1391;46.74287300;11.63683300;2023-05-07T00:20:05;12.60;99.90
2767;DHT22;1391;46.74287300;11.63683300;2023-05-07T00:22:34;12.30;99.90
2767;DHT22;1391;46.74287300;11.63683300;2023-05-07T00:25:01;12.30;99.90
2767;DHT22;1391;46.74287300;11.63683300;2023-05-07T00:27:29;12.60;99.90
2767;DHT22;1391;46.74287300;11.63683300;2023-05-07T00:29:56;12.30;99.90
2767;DHT22;1391;46.74287300;11.63683300;2023-05-07T00:32:23;12.60;99.90
2767;DHT22;1391;46.74287300;11.63683300;2023-05-07T00:34:50;12.40;99.90
2767;DHT22;1391;46.74287300;11.63683300;2023-05-07T00:37:18;11.90;99.90
2767;DHT22;1391;46.74287300;11.63683300;2023-05-07T00:39:46;12.30;99.90
2767;DHT22;1391;46.74287300;11.63683300;2023-05-07T00:42:14;12.10;99.90
2767;DHT22;1391;46.74287300;11.63683300;2023-05-07T00:44:41;12.30;99.90
2767;DHT22;1391;46.74287300;11.63683300;2023-05-07T00:47:09;12.70;99.90
2767;DHT22;1391;46.74287300;11.63683300;2023-05-07T00:49:38;12.40;99.90
2767;DHT22;1391;46.74287300;11.63683300;2023-05-07T00:52:07;12.30;99.90
2767;DHT22;1391;46.74287300;11.63683300;2023-05-07T00:54:36;12.60;99.90
2767;DHT22;1391;46.74287300;11.63683300;2023-05-07T00:57:05;13.10;99.90
2767;DHT22;1391;46.74287300;11.63683300;2023-05-07T00:59:33;12.80;99.90
2767;DHT22;1391;46.74287300;11.63683300;2023-05-07T01:02:00;13.00;99.90
2767;DHT22;1391;46.74287300;11.63683300;2023-05-07T01:04:28;12.80;99.90
2767;DHT22;1391;46.74287300;11.63683300;2023-05-07T01:06:56;12.50;99.90
2767;DHT22;1391;46.74287300;11.63683300;2023-05-07T01:09:25;12.50;99.90
2767;DHT22;1391;46.74287300;11.63683300;2023-05-07T01:11:53;12.50;99.90
2767;DHT22;1391;46.74287300;11.63683300;2023-05-07T01:14:24;12.40;99.90
2767;DHT22;1391;46.74287300;11.63683300;2023-05-07T01:16:52;12.60;99.90
2767;DHT22;1391;46.74287300;11.63683300;2023-05-07T01:19:20;12.70;99.90
2767;DHT22;1391;46.74287300;11.63683300;2023-05-07T01:21:48;12.40;99.90
2767;DHT22;1391;46.74287300;11.63683300;2023-05-07T01:24:17;12.30;99.90
2767;DHT22;1391;46.74287300;11.63683300;2023-05-07T01:26:45;12.40;99.90
2767;DHT22;1391;46.74287300;11.63683300;2023-05-07T01:29:12;12.60;99.90
2767;DHT22;1391;46.74287300;11.63683300;2023-05-07T01:31:41;12.60;99.90
2767;DHT22;1391;46.74287300;11.63683300;2023-05-07T01:34:09;12.60;99.90
2767;DHT22;1391;46.74287300;11.63683300;2023-05-07T01:36:38;13.30;99.90
2767;DHT22;1391;46.74287300;11.63683300;2023-05-07T01:39:07;13.40;99.90
2767;DHT22;1391;46.74287300;11.63683300;2023-05-07T01:41:37;13.20;99.90
2767;DHT22;1391;46.74287300;11.63683300;2023-05-07T01:44:05;13.10;99.90
2767;DHT22;1391;46.74287300;11.63683300;2023-05-07T01:46:33;13.40;99.90
2767;DHT22;1391;46.74287300;11.63683300;2023-05-07T01:49:01;13.50;99.90
2767;DHT22;1391;46.74287300;11.63683300;2023-05-07T01:51:28;13.40;99.90
2767;DHT22;1391;46.74287300;11.63683300;2023-05-07T01:53:57;13.50;99.90
2767;DHT22;1391;46.74287300;11.63683300;2023-05-07T01:56:24;13.40;99.90
2767;DHT22;1391;46.74287300;11.63683300;2023-05-07T01:58:53;13.50;99.90
2767;DHT22;1391;46.74287300;11.63683300;2023-05-07T02:01:20;13.40;99.90
2767;DHT22;1391;46.74287300;11.63683300;2023-05-07T02:03:47;13.50;99.90
2767;DHT22;1391;46.74287300;11.63683300;2023-05-07T02:06:15;13.40;99.90
2767;DHT22;1391;46.74287300;11.63683300;2023-05-07T02:08:42;13.60;99.90
2767;DHT22;1391;46.74287300;11.63683300;2023-05-07T02:11:09;13.50;99.80
2767;DHT22;1391;46.74287300;11.63683300;2023-05-07T02:13:36;13.50;99.90
2767;DHT22;1391;46.74287300;11.63683300;2023-05-07T02:16:06;13.40;99.90
2767;DHT22;1391;46.74287300;11.63683300;2023-05-07T02:18:33;13.50;99.90
2767;DHT22;1391;46.74287300;11.63683300;2023-05-07T02:21:01;13.50;99.90
2767;DHT22;1391;46.74287300;11.63683300;2023-05-07T02:23:28;13.40;99.90
2767;DHT22;1391;46.74287300;11.63683300;2023-05-07T02:25:56;13.70;99.90
2767;DHT22;1391;46.74287300;11.63683300;2023-05-07T02:28:23;13.10;99.90
2767;DHT22;1391;46.74287300;11.63683300;2023-05-07T02:30:50;13.10;99.90
2767;DHT22;1391;46.74287300;11.63683300;2023-05-07T02:33:19;13.10;99.90
2767;DHT22;1391;46.74287300;11.63683300;2023-05-07T02:35:46;13.20;99.90
2767;DHT22;1391;46.74287300;11.63683300;2023-05-07T02:38:14;13.30;99.90
2767;DHT22;1391;46.74287300;11.63683300;2023-05-07T02:40:41;13.10;99.90
2767;DHT22;1391;46.74287300;11.63683300;2023-05-07T02:43:09;13.30;99.90
2767;DHT22;1391;46.74287300;11.63683300;2023-05-07T02:45:36;13.10;99.90
2767;DHT22;1391;46.74287300;11.63683300;2023-05-07T02:48:04;13.20;99.90
2767;DHT22;1391;46.74287300;11.63683300;2023-05-07T02:50:34;12.90;99.90
2767;DHT22;1391;46.74287300;11.63683300;2023-05-07T02:53:01;12.90;99.90
2767;DHT22;1391;46.74287300;11.63683300;2023-05-07T02:55:29;12.90;99.90
2767;DHT22;1391;46.74287300;11.63683300;2023-05-07T02:57:57;12.90;99.90
2767;DHT22;1391;46.74287300;11.63683300;2023-05-07T03:00:24;12.90;99.90
2767;DHT22;1391;46.74287300;11.63683300;2023-05-07T03:02:52;12.90;99.90
2767;DHT22;1391;46.74287300;11.63683300;2023-05-07T03:05:19;13.00;99.90
2767;DHT22;1391;46.74287300;11.63683300;2023-05-07T03:07:48;13.00;99.90
2767;DHT22;1391;46.74287300;11.63683300;2023-05-07T03:10:15;12.60;99.90
2767;DHT22;1391;46.74287300;11.63683300;2023-05-07T03:12:44;12.50;99.90
2767;DHT22;1391;46.74287300;11.63683300;2023-05-07T03:15:12;12.60;99.90
2767;DHT22;1391;46.74287300;11.63683300;2023-05-07T03:17:40;12.80;99.90
2767;DHT22;1391;46.74287300;11.63683300;2023-05-07T03:20:17;12.60;99.90
2767;DHT22;1391;46.74287300;11.63683300;2023-05-07T03:22:44;12.40;99.90
2767;DHT22;1391;46.74287300;11.63683300;2023-05-07T03:25:17;12.50;99.90
2767;DHT22;1391;46.74287300;11.63683300;2023-05-07T03:27:58;12.60;99.90
2767;DHT22;1391;46.74287300;11.63683300;2023-05-07T03:30:43;12.40;99.90
2767;DHT22;1391;46.74287300;11.63683300;2023-05-07T03:33:24;12.50;99.90
2767;DHT22;1391;46.74287300;11.63683300;2023-05-07T03:38:48;12.40;99.90
2767;DHT22;1391;46.74287300;11.63683300;2023-05-07T03:41:46;12.40;99.90
2767;DHT22;1391;46.74287300;11.63683300;2023-05-07T03:44:30;12.40;99.90
2767;DHT22;1391;46.74287300;11.63683300;2023-05-07T03:47:12;12.40;99.90
2767;DHT22;1391;46.74287300;11.63683300;2023-05-07T03:49:45;12.40;99.90
2767;DHT22;1391;46.74287300;11.63683300;2023-05-07T03:52:14;12.50;99.90
2767;DHT22;1391;46.74287300;11.63683300;2023-05-07T03:54:59;12.60;99.90
2767;DHT22;1391;46.74287300;11.63683300;2023-05-07T03:57:32;12.40;99.90
2767;DHT22;1391;46.74287300;11.63683300;2023-05-07T04:00:01;12.10;99.90
2767;DHT22;1391;46.74287300;11.63683300;2023-05-07T04:02:34;12.00;99.90
2767;DHT22;1391;46.74287300;11.63683300;2023-05-07T04:05:05;12.20;99.90
2767;DHT22;1391;46.74287300;11.63683300;2023-05-07T04:07:44;12.10;99.90
2767;DHT22;1391;46.74287300;11.63683300;2023-05-07T04:10:13;12.10;99.90
2767;DHT22;1391;46.74287300;11.63683300;2023-05-07T04:12:46;12.10;99.90
2767;DHT22;1391;46.74287300;11.63683300;2023-05-07T04:15:13;12.00;99.90
2767;DHT22;1391;46.74287300;11.63683300;2023-05-07T04:17:57;12.10;99.90
2767;DHT22;1391;46.74287300;11.63683300;2023-05-07T04:20:34;12.10;99.90
2767;DHT22;1391;46.74287300;11.63683300;2023-05-07T04:23:08;12.10;99.90
2767;DHT22;1391;46.74287300;11.63683300;2023-05-07T04:25:37;12.00;99.90
2767;DHT22;1391;46.74287300;11.63683300;2023-05-07T04:28:12;12.10;99.90
2767;DHT22;1391;46.74287300;11.63683300;2023-05-07T04:31:04;12.10;99.90
2767;DHT22;1391;46.74287300;11.63683300;2023-05-07T04:33:41;12.10;99.90
2767;DHT22;1391;46.74287300;11.63683300;2023-05-07T04:36:23;12.10;99.90
2767;DHT22;1391;46.74287300;11.63683300;2023-05-07T04:38:56;12.10;99.90
2767;DHT22;1391;46.74287300;11.63683300;2023-05-07T04:41:34;12.10;99.90
2767;DHT22;1391;46.74287300;11.63683300;2023-05-07T04:44:18;12.00;99.90
2767;DHT22;1391;46.74287300;11.63683300;2023-05-07T04:46:54;12.20;99.90
2767;DHT22;1391;46.74287300;11.63683300;2023-05-07T04:49:26;12.20;99.90
2767;DHT22;1391;46.74287300;11.63683300;2023-05-07T04:51:58;12.10;99.90
2767;DHT22;1391;46.74287300;11.63683300;2023-05-07T04:54:28;12.00;99.90
2767;DHT22;1391;46.74287300;11.63683300;2023-05-07T04:57:02;12.20;99.90
2767;DHT22;1391;46.74287300;11.63683300;2023-05-07T04:59:36;12.20;99.90
2767;DHT22;1391;46.74287300;11.63683300;2023-05-07T05:02:13;12.20;99.90
2767;DHT22;1391;46.74287300;11.63683300;2023-05-07T05:04:50;12.20;99.90
2767;DHT22;1391;46.74287300;11.63683300;2023-05-07T05:07:23;12.10;99.90
2767;DHT22;1391;46.74287300;11.63683300;2023-05-07T05:09:59;12.40;99.90
2767;DHT22;1391;46.74287300;11.63683300;2023-05-07T05:12:34;12.40;99.90
2767;DHT22;1391;46.74287300;11.63683300;2023-05-07T05:15:12;12.40;99.90
2767;DHT22;1391;46.74287300;11.63683300;2023-05-07T05:17:47;12.40;99.90
2767;DHT22;1391;46.74287300;11.63683300;2023-05-07T05:20:19;12.40;99.90
2767;DHT22;1391;46.74287300;11.63683300;2023-05-07T05:22:54;12.50;99.90
2767;DHT22;1391;46.74287300;11.63683300;2023-05-07T05:25:25;12.60;99.90
2767;DHT22;1391;46.74287300;11.63683300;2023-05-07T05:27:53;12.40;99.90
2767;DHT22;1391;46.74287300;11.63683300;2023-05-07T05:30:22;12.70;99.90
2767;DHT22;1391;46.74287300;11.63683300;2023-05-07T05:32:54;12.70;99.90
2767;DHT22;1391;46.74287300;11.63683300;2023-05-07T05:35:29;12.60;99.90
2767;DHT22;1391;46.74287300;11.63683300;2023-05-07T05:37:57;12.70;99.90
2767;DHT22;1391;46.74287300;11.63683300;2023-05-07T05:40:24;13.00;99.90
2767;DHT22;1391;46.74287300;11.63683300;2023-05-07T05:42:52;12.90;99.90
2767;DHT22;1391;46.74287300;11.63683300;2023-05-07T05:45:19;12.80;99.90
2767;DHT22;1391;46.74287300;11.63683300;2023-05-07T05:47:48;13.00;99.90
2767;DHT22;1391;46.74287300;11.63683300;2023-05-07T05:50:16;12.90;99.90
2767;DHT22;1391;46.74287300;11.63683300;2023-05-07T05:52:43;12.90;99.90
2767;DHT22;1391;46.74287300;11.63683300;2023-05-07T05:55:10;13.20;99.90
2767;DHT22;1391;46.74287300;11.63683300;2023-05-07T05:57:38;13.50;99.90
2767;DHT22;1391;46.74287300;11.63683300;2023-05-07T06:00:07;13.10;99.90
2767;DHT22;1391;46.74287300;11.63683300;2023-05-07T06:02:35;13.10;99.90
2767;DHT22;1391;46.74287300;11.63683300;2023-05-07T06:05:05;13.10;99.90
2767;DHT22;1391;46.74287300;11.63683300;2023-05-07T06:07:33;13.10;99.90
2767;DHT22;1391;46.74287300;11.63683300;2023-05-07T06:10:00;13.10;99.90
2767;DHT22;1391;46.74287300;11.63683300;2023-05-07T06:12:28;13.40;99.90
2767;DHT22;1391;46.74287300;11.63683300;2023-05-07T06:14:55;13.60;99.90
2767;DHT22;1391;46.74287300;11.63683300;2023-05-07T06:17:22;13.60;99.90
2767;DHT22;1391;46.74287300;11.63683300;2023-05-07T06:19:51;14.00;99.90
2767;DHT22;1391;46.74287300;11.63683300;2023-05-07T06:22:20;13.40;99.90
2767;DHT22;1391;46.74287300;11.63683300;2023-05-07T06:24:48;13.60;99.90
2767;DHT22;1391;46.74287300;11.63683300;2023-05-07T06:27:15;13.90;99.90
2767;DHT22;1391;46.74287300;11.63683300;2023-05-07T06:29:42;13.80;99.90
2767;DHT22;1391;46.74287300;11.63683300;2023-05-07T06:32:10;13.90;99.90
2767;DHT22;1391;46.74287300;11.63683300;2023-05-07T06:34:39;14.10;99.90
2767;DHT22;1391;46.74287300;11.63683300;2023-05-07T06:37:06;14.00;99.90
2767;DHT22;1391;46.74287300;11.63683300;2023-05-07T06:39:35;14.20;99.90
2767;DHT22;1391;46.74287300;11.63683300;2023-05-07T06:42:03;14.10;99.90
2767;DHT22;1391;46.74287300;11.63683300;2023-05-07T06:44:31;14.80;99.90
2767;DHT22;1391;46.74287300;11.63683300;2023-05-07T06:46:58;14.50;99.90
2767;DHT22;1391;46.74287300;11.63683300;2023-05-07T06:49:26;14.50;99.90
2767;DHT22;1391;46.74287300;11.63683300;2023-05-07T06:51:53;14.50;99.90
2767;DHT22;1391;46.74287300;11.63683300;2023-05-07T06:54:21;14.50;99.90
2767;DHT22;1391;46.74287300;11.63683300;2023-05-07T06:56:50;14.60;99.90
2767;DHT22;1391;46.74287300;11.63683300;2023-05-07T06:59:18;15.00;99.90
2767;DHT22;1391;46.74287300;11.63683300;2023-05-07T07:01:46;14.50;99.90
2767;DHT22;1391;46.74287300;11.63683300;2023-05-07T07:04:13;14.60;99.90
2767;DHT22;1391;46.74287300;11.63683300;2023-05-07T07:06:41;15.30;99.90
2767;DHT22;1391;46.74287300;11.63683300;2023-05-07T07:09:08;15.10;99.90
2767;DHT22;1391;46.74287300;11.63683300;2023-05-07T07:11:35;15.90;99.90
2767;DHT22;1391;46.74287300;11.63683300;2023-05-07T07:14:05;15.80;98.30
2767;DHT22;1391;46.74287300;11.63683300;2023-05-07T07:16:32;15.70;99.60
2767;DHT22;1391;46.74287300;11.63683300;2023-05-07T07:18:59;16.00;99.90
2767;DHT22;1391;46.74287300;11.63683300;2023-05-07T07:21:27;16.50;97.30
2767;DHT22;1391;46.74287300;11.63683300;2023-05-07T07:23:55;16.20;94.50
2767;DHT22;1391;46.74287300;11.63683300;2023-05-07T07:26:23;16.40;96.60
2767;DHT22;1391;46.74287300;11.63683300;2023-05-07T07:28:50;16.40;92.90
2767;DHT22;1391;46.74287300;11.63683300;2023-05-07T07:31:19;16.20;93.50
2767;DHT22;1391;46.74287300;11.63683300;2023-05-07T07:33:46;16.40;91.80
2767;DHT22;1391;46.74287300;11.63683300;2023-05-07T07:36:16;16.40;93.40
2767;DHT22;1391;46.74287300;11.63683300;2023-05-07T07:38:43;17.00;91.50
2767;DHT22;1391;46.74287300;11.63683300;2023-05-07T07:41:11;17.00;90.60
2767;DHT22;1391;46.74287300;11.63683300;2023-05-07T07:43:39;17.50;90.20
2767;DHT22;1391;46.74287300;11.63683300;2023-05-07T07:46:06;17.60;79.90
2767;DHT22;1391;46.74287300;11.63683300;2023-05-07T07:48:35;17.20;85.30
2767;DHT22;1391;46.74287300;11.63683300;2023-05-07T07:51:03;17.40;83.00
2767;DHT22;1391;46.74287300;11.63683300;2023-05-07T07:53:31;18.10;90.10
2767;DHT22;1391;46.74287300;11.63683300;2023-05-07T07:55:58;18.30;84.90
2767;DHT22;1391;46.74287300;11.63683300;2023-05-07T07:58:26;18.80;88.00
2767;DHT22;1391;46.74287300;11.63683300;2023-05-07T08:00:53;19.30;79.60
2767;DHT22;1391;46.74287300;11.63683300;2023-05-07T08:03:21;18.70;66.70
2767;DHT22;1391;46.74287300;11.63683300;2023-05-07T08:05:50;18.70;71.40
2767;DHT22;1391;46.74287300;11.63683300;2023-05-07T08:08:17;18.80;74.90
2767;DHT22;1391;46.74287300;11.63683300;2023-05-07T08:10:44;18.80;68.80
2767;DHT22;1391;46.74287300;11.63683300;2023-05-07T08:13:12;18.70;68.50
2767;DHT22;1391;46.74287300;11.63683300;2023-05-07T08:15:40;18.70;65.70
2767;DHT22;1391;46.74287300;11.63683300;2023-05-07T08:18:07;18.80;67.90
2767;DHT22;1391;46.74287300;11.63683300;2023-05-07T08:20:35;19.30;71.40
2767;DHT22;1391;46.74287300;11.63683300;2023-05-07T08:23:06;19.50;61.40
2767;DHT22;1391;46.74287300;11.63683300;2023-05-07T08:25:34;18.90;57.20
2767;DHT22;1391;46.74287300;11.63683300;2023-05-07T08:28:01;18.60;59.60
2767;DHT22;1391;46.74287300;11.63683300;2023-05-07T08:30:29;18.70;63.40
2767;DHT22;1391;46.74287300;11.63683300;2023-05-07T08:32:57;19.40;67.40
2767;DHT22;1391;46.74287300;11.63683300;2023-05-07T08:35:24;20.40;69.30
2767;DHT22;1391;46.74287300;11.63683300;2023-05-07T08:37:52;20.20;55.40
2767;DHT22;1391;46.74287300;11.63683300;2023-05-07T08:40:24;19.30;56.80
2767;DHT22;1391;46.74287300;11.63683300;2023-05-07T08:42:53;18.80;55.20
2767;DHT22;1391;46.74287300;11.63683300;2023-05-07T08:45:21;18.90;58.50
2767;DHT22;1391;46.74287300;11.63683300;2023-05-07T08:47:52;19.60;66.50
2767;DHT22;1391;46.74287300;11.63683300;2023-05-07T08:50:24;20.10;55.90
2767;DHT22;1391;46.74287300;11.63683300;2023-05-07T08:52:52;20.50;60.80
2767;DHT22;1391;46.74287300;11.63683300;2023-05-07T08:55:22;20.50;54.30
2767;DHT22;1391;46.74287300;11.63683300;2023-05-07T08:57:50;20.20;51.90
2767;DHT22;1391;46.74287300;11.63683300;2023-05-07T09:00:18;20.20;54.50
2767;DHT22;1391;46.74287300;11.63683300;2023-05-07T09:02:46;20.30;56.40
2767;DHT22;1391;46.74287300;11.63683300;2023-05-07T09:05:13;19.50;53.30
2767;DHT22;1391;46.74287300;11.63683300;2023-05-07T09:07:41;20.30;66.60
2767;DHT22;1391;46.74287300;11.63683300;2023-05-07T09:10:09;20.50;52.80
2767;DHT22;1391;46.74287300;11.63683300;2023-05-07T09:12:38;20.50;48.10
2767;DHT22;1391;46.74287300;11.63683300;2023-05-07T09:15:07;19.90;48.00
2767;DHT22;1391;46.74287300;11.63683300;2023-05-07T09:17:35;20.50;48.30
2767;DHT22;1391;46.74287300;11.63683300;2023-05-07T09:20:03;20.50;50.80
2767;DHT22;1391;46.74287300;11.63683300;2023-05-07T09:22:32;20.50;45.80
2767;DHT22;1391;46.74287300;11.63683300;2023-05-07T09:25:00;20.50;45.80
2767;DHT22;1391;46.74287300;11.63683300;2023-05-07T09:27:27;20.50;48.90
2767;DHT22;1391;46.74287300;11.63683300;2023-05-07T09:29:56;20.30;56.20
2767;DHT22;1391;46.74287300;11.63683300;2023-05-07T09:32:25;21.10;49.00
2767;DHT22;1391;46.74287300;11.63683300;2023-05-07T09:34:52;20.60;43.70
2767;DHT22;1391;46.74287300;11.63683300;2023-05-07T09:37:21;20.50;43.90
2767;DHT22;1391;46.74287300;11.63683300;2023-05-07T09:39:49;20.70;42.50
2767;DHT22;1391;46.74287300;11.63683300;2023-05-07T09:42:23;20.70;44.30
2767;DHT22;1391;46.74287300;11.63683300;2023-05-07T09:44:51;20.60;42.00
2767;DHT22;1391;46.74287300;11.63683300;2023-05-07T09:47:20;20.80;41.40
2767;DHT22;1391;46.74287300;11.63683300;2023-05-07T09:49:55;21.20;44.30
2767;DHT22;1391;46.74287300;11.63683300;2023-05-07T09:52:24;20.60;43.80
2767;DHT22;1391;46.74287300;11.63683300;2023-05-07T09:54:55;21.30;44.00
2767;DHT22;1391;46.74287300;11.63683300;2023-05-07T09:57:25;21.40;40.60
2767;DHT22;1391;46.74287300;11.63683300;2023-05-07T09:59:54;21.70;36.90
2767;DHT22;1391;46.74287300;11.63683300;2023-05-07T10:02:26;21.10;32.00
2767;DHT22;1391;46.74287300;11.63683300;2023-05-07T10:04:54;21.40;32.30
2767;DHT22;1391;46.74287300;11.63683300;2023-05-07T10:07:23;21.80;32.10
2767;DHT22;1391;46.74287300;11.63683300;2023-05-07T10:09:52;22.10;33.00
2767;DHT22;1391;46.74287300;11.63683300;2023-05-07T10:12:20;22.10;33.10
2767;DHT22;1391;46.74287300;11.63683300;2023-05-07T10:14:48;22.10;29.80
2767;DHT22;1391;46.74287300;11.63683300;2023-05-07T10:17:18;21.90;24.60
2767;DHT22;1391;46.74287300;11.63683300;2023-05-07T10:19:48;22.20;30.90
2767;DHT22;1391;46.74287300;11.63683300;2023-05-07T10:22:18;22.50;35.40
2767;DHT22;1391;46.74287300;11.63683300;2023-05-07T10:24:49;23.10;31.60
2767;DHT22;1391;46.74287300;11.63683300;2023-05-07T10:27:19;22.80;24.70
2767;DHT22;1391;46.74287300;11.63683300;2023-05-07T10:29:52;22.80;25.70
2767;DHT22;1391;46.74287300;11.63683300;2023-05-07T10:32:35;22.90;29.50
2767;DHT22;1391;46.74287300;11.63683300;2023-05-07T10:35:12;23.70;25.30
2767;DHT22;1391;46.74287300;11.63683300;2023-05-07T10:37:42;22.90;23.50
2767;DHT22;1391;46.74287300;11.63683300;2023-05-07T10:40:12;22.20;21.80
2767;DHT22;1391;46.74287300;11.63683300;2023-05-07T10:42:53;22.10;25.50
2767;DHT22;1391;46.74287300;11.63683300;2023-05-07T10:45:23;21.80;25.20
2767;DHT22;1391;46.74287300;11.63683300;2023-05-07T10:48:08;21.10;23.80
2767;DHT22;1391;46.74287300;11.63683300;2023-05-07T10:50:38;21.10;26.90
2767;DHT22;1391;46.74287300;11.63683300;2023-05-07T10:53:21;21.80;25.00
2767;DHT22;1391;46.74287300;11.63683300;2023-05-07T10:56:24;22.00;33.00
2767;DHT22;1391;46.74287300;11.63683300;2023-05-07T10:58:55;22.10;36.00
2767;DHT22;1391;46.74287300;11.63683300;2023-05-07T11:01:50;21.20;29.50
2767;DHT22;1391;46.74287300;11.63683300;2023-05-07T11:04:19;21.10;25.90
2767;DHT22;1391;46.74287300;11.63683300;2023-05-07T11:10:04;21.10;27.30
2767;DHT22;1391;46.74287300;11.63683300;2023-05-07T11:12:50;21.00;25.40
2767;DHT22;1391;46.74287300;11.63683300;2023-05-07T11:15:48;21.20;28.30
2767;DHT22;1391;46.74287300;11.63683300;2023-05-07T11:18:17;21.20;30.20
2767;DHT22;1391;46.74287300;11.63683300;2023-05-07T11:20:47;21.80;34.10
2767;DHT22;1391;46.74287300;11.63683300;2023-05-07T11:23:57;21.90;26.90
2767;DHT22;1391;46.74287300;11.63683300;2023-05-07T11:26:27;22.00;31.60
2767;DHT22;1391;46.74287300;11.63683300;2023-05-07T11:28:56;21.80;28.30
2767;DHT22;1391;46.74287300;11.63683300;2023-05-07T11:31:27;22.00;25.90
2767;DHT22;1391;46.74287300;11.63683300;2023-05-07T11:33:55;22.10;28.70
2767;DHT22;1391;46.74287300;11.63683300;2023-05-07T11:36:24;22.70;28.40
2767;DHT22;1391;46.74287300;11.63683300;2023-05-07T11:38:52;21.90;25.90
2767;DHT22;1391;46.74287300;11.63683300;2023-05-07T11:41:21;22.60;28.00
2767;DHT22;1391;46.74287300;11.63683300;2023-05-07T11:43:57;22.60;28.70
2767;DHT22;1391;46.74287300;11.63683300;2023-05-07T11:46:27;22.80;31.50
2767;DHT22;1391;46.74287300;11.63683300;2023-05-07T11:48:56;22.50;27.10
2767;DHT22;1391;46.74287300;11.63683300;2023-05-07T11:51:25;22.80;26.30
2767;DHT22;1391;46.74287300;11.63683300;2023-05-07T11:53:55;22.90;30.80
2767;DHT22;1391;46.74287300;11.63683300;2023-05-07T11:56:24;23.40;29.10
2767;DHT22;1391;46.74287300;11.63683300;2023-05-07T11:58:52;22.80;27.90
2767;DHT22;1391;46.74287300;11.63683300;2023-05-07T12:01:19;22.70;25.50
2767;DHT22;1391;46.74287300;11.63683300;2023-05-07T12:03:46;22.80;27.00
2767;DHT22;1391;46.74287300;11.63683300;2023-05-07T12:06:16;23.00;28.70
2767;DHT22;1391;46.74287300;11.63683300;2023-05-07T12:08:45;22.80;25.20
2767;DHT22;1391;46.74287300;11.63683300;2023-05-07T12:11:15;22.80;26.00
2767;DHT22;1391;46.74287300;11.63683300;2023-05-07T12:13:45;22.90;25.60
2767;DHT22;1391;46.74287300;11.63683300;2023-05-07T12:16:13;23.40;20.70
2767;DHT22;1391;46.74287300;11.63683300;2023-05-07T12:18:41;23.40;20.70
2767;DHT22;1391;46.74287300;11.63683300;2023-05-07T12:21:09;23.50;18.60
2767;DHT22;1391;46.74287300;11.63683300;2023-05-07T12:23:38;23.40;23.00
2767;DHT22;1391;46.74287300;11.63683300;2023-05-07T12:26:05;22.90;21.60
2767;DHT22;1391;46.74287300;11.63683300;2023-05-07T12:28:36;22.70;22.70
2767;DHT22;1391;46.74287300;11.63683300;2023-05-07T12:31:07;22.90;23.20
2767;DHT22;1391;46.74287300;11.63683300;2023-05-07T12:33:35;22.90;22.90
2767;DHT22;1391;46.74287300;11.63683300;2023-05-07T12:36:07;22.90;23.40
2767;DHT22;1391;46.74287300;11.63683300;2023-05-07T12:38:36;22.90;26.00
2767;DHT22;1391;46.74287300;11.63683300;2023-05-07T12:41:05;23.40;22.70
2767;DHT22;1391;46.74287300;11.63683300;2023-05-07T12:43:35;23.20;23.10
2767;DHT22;1391;46.74287300;11.63683300;2023-05-07T12:46:06;23.50;21.20
2767;DHT22;1391;46.74287300;11.63683300;2023-05-07T12:48:36;23.50;23.20
2767;DHT22;1391;46.74287300;11.63683300;2023-05-07T12:51:05;23.50;20.70
2767;DHT22;1391;46.74287300;11.63683300;2023-05-07T12:53:33;23.50;19.30
2767;DHT22;1391;46.74287300;11.63683300;2023-05-07T12:56:02;23.50;22.00
2767;DHT22;1391;46.74287300;11.63683300;2023-05-07T12:58:35;23.70;20.70
2767;DHT22;1391;46.74287300;11.63683300;2023-05-07T13:01:06;23.60;19.80
2767;DHT22;1391;46.74287300;11.63683300;2023-05-07T13:03:36;23.50;22.70
2767;DHT22;1391;46.74287300;11.63683300;2023-05-07T13:06:06;23.70;20.80
2767;DHT22;1391;46.74287300;11.63683300;2023-05-07T13:08:36;24.30;19.60
2767;DHT22;1391;46.74287300;11.63683300;2023-05-07T13:11:08;24.40;20.30
2767;DHT22;1391;46.74287300;11.63683300;2023-05-07T13:13:37;24.50;18.50
2767;DHT22;1391;46.74287300;11.63683300;2023-05-07T13:16:09;24.30;19.50
2767;DHT22;1391;46.74287300;11.63683300;2023-05-07T13:18:39;23.60;21.40
2767;DHT22;1391;46.74287300;11.63683300;2023-05-07T13:21:09;23.50;20.80
2767;DHT22;1391;46.74287300;11.63683300;2023-05-07T13:23:38;23.50;19.30
2767;DHT22;1391;46.74287300;11.63683300;2023-05-07T13:26:06;23.40;19.60
2767;DHT22;1391;46.74287300;11.63683300;2023-05-07T13:28:33;23.40;20.30
2767;DHT22;1391;46.74287300;11.63683300;2023-05-07T13:31:01;22.80;20.80
2767;DHT22;1391;46.74287300;11.63683300;2023-05-07T13:33:29;22.70;22.60
2767;DHT22;1391;46.74287300;11.63683300;2023-05-07T13:35:57;22.90;23.20
2767;DHT22;1391;46.74287300;11.63683300;2023-05-07T13:38:26;22.70;22.60
2767;DHT22;1391;46.74287300;11.63683300;2023-05-07T13:40:53;22.70;22.80
2767;DHT22;1391;46.74287300;11.63683300;2023-05-07T13:43:20;22.70;21.50
2767;DHT22;1391;46.74287300;11.63683300;2023-05-07T13:45:48;22.50;20.20
2767;DHT22;1391;46.74287300;11.63683300;2023-05-07T13:48:21;22.60;23.60
2767;DHT22;1391;46.74287300;11.63683300;2023-05-07T13:50:50;22.10;29.20
2767;DHT22;1391;46.74287300;11.63683300;2023-05-07T13:53:19;21.30;22.60
2767;DHT22;1391;46.74287300;11.63683300;2023-05-07T13:55:46;21.60;27.90